Time;durP1;ratioP1;P1;durP2;ratioP2;P2;SDS_P1;SDS_P2;PMS_P1;PMS_P2;Temp;Humidity;BMP_temperature;BMP_pressure;BME280_temperature;BME280_humidity;BME280_pressure;Samples;Min_cycle;Max_cycle;Signal;HPM_P1;HPM_P2
2021/09/06 00:00:07;;;;;;;12.52;7.50;;;;;;;9.91;91.99;96053.97;5013180;28;20072;-78
2021/09/06 00:02:53;;;;;;;14.68;8.38;;;;;;;9.96;91.72;96051.38;5029959;28;20053;-78
2021/09/06 00:05:18;;;;;;;12.70;7.60;;;;;;;9.92;91.51;96060.81;5028514;28;20087;-78
2021/09/06 00:07:45;;;;;;;13.88;7.88;;;;;;;9.82;91.75;96056.25;5030288;28;20056;-77
2021/09/06 00:10:30;;;;;;;15.82;8.55;;;;;;;9.74;91.46;96070.66;5027648;28;20034;-78
2021/09/06 00:12:57;;;;;;;13.20;7.30;;;;;;;9.71;91.31;96065.88;5023865;28;20577;-77
2021/09/06 00:15:23;;;;;;;13.48;7.50;;;;;;;9.75;91.74;96072.22;5013191;28;20056;-80
2021/09/06 00:17:49;;;;;;;12.63;7.75;;;;;;;9.52;91.79;96058.38;5031450;28;20045;-79
2021/09/06 00:20:14;;;;;;;12.13;7.30;;;;;;;9.79;90.97;96052.28;5029629;28;20048;-78
2021/09/06 00:22:40;;;;;;;17.75;7.82;;;;;;;9.78;91.11;96065.69;5028342;28;20135;-78
2021/09/06 00:25:06;;;;;;;11.15;7.03;;;;;;;9.73;91.38;96057.78;5031668;28;20053;-78
2021/09/06 00:27:32;;;;;;;14.40;7.40;;;;;;;9.74;90.49;96070.66;5030725;28;20657;-77
2021/09/06 00:29:57;;;;;;;13.50;7.25;;;;;;;9.68;90.75;96069.00;5031263;28;20096;-78
2021/09/06 00:32:23;;;;;;;13.32;7.60;;;;;;;9.63;91.15;96063.72;5026361;28;20100;-78
2021/09/06 00:34:48;;;;;;;12.60;7.28;;;;;;;9.34;90.92;96066.59;5011880;28;20523;-78
2021/09/06 00:37:14;;;;;;;13.65;7.82;;;;;;;9.24;91.99;96071.72;5030261;28;20049;-78
2021/09/06 00:39:40;;;;;;;14.55;7.80;;;;;;;9.27;92.06;96071.25;5024433;28;20521;-79
2021/09/06 00:42:05;;;;;;;13.68;8.15;;;;;;;9.31;92.47;96069.69;5013528;28;20503;-78
2021/09/06 00:44:31;;;;;;;12.77;7.88;;;;;;;9.14;92.46;96062.72;5030315;28;20045;-78
2021/09/06 00:46:59;;;;;;;14.15;7.85;;;;;;;9.12;92.69;96075.31;5031431;28;20144;-78
2021/09/06 00:49:25;;;;;;;14.05;7.10;;;;;;;9.14;93.05;96077.69;5018351;28;20049;-77
2021/09/06 00:51:51;;;;;;;12.32;7.40;;;;;;;9.24;92.25;96079.59;5030192;28;20042;-78
2021/09/06 00:54:17;;;;;;;14.07;7.88;;;;;;;9.17;92.08;96075.34;5028426;28;20037;-78
2021/09/06 00:56:43;;;;;;;13.65;8.05;;;;;;;9.16;92.13;96080.84;5031140;28;20575;-78
2021/09/06 00:59:09;;;;;;;12.05;7.45;;;;;;;9.20;92.37;96076.69;5010601;28;20041;-78
2021/09/06 01:01:34;;;;;;;13.98;7.38;;;;;;;9.38;91.91;96074.78;5029074;28;20129;-79
2021/09/06 01:04:03;;;;;;;16.08;7.80;;;;;;;9.25;91.95;96068.06;5021636;28;20499;-78
2021/09/06 01:06:28;;;;;;;15.05;7.70;;;;;;;9.19;92.24;96075.91;5031737;28;20042;-78
2021/09/06 01:08:54;;;;;;;18.58;7.50;;;;;;;9.16;92.46;96071.13;5030739;28;20049;-78
2021/09/06 01:11:20;;;;;;;11.98;6.97;;;;;;;8.92;91.97;96064.56;5028137;28;20068;-78
2021/09/06 01:13:45;;;;;;;11.60;6.97;;;;;;;8.98;93.05;96074.09;5031686;28;20669;-79
2021/09/06 01:16:11;;;;;;;12.75;7.22;;;;;;;8.86;92.37;96071.56;5030176;28;20115;-78
2021/09/06 01:18:36;;;;;;;16.35;8.27;;;;;;;8.96;92.57;96076.16;5021387;28;20491;-78
2021/09/06 01:21:02;;;;;;;15.23;7.93;;;;;;;8.91;92.27;96068.25;5025189;28;20049;-78
2021/09/06 01:23:28;;;;;;;12.88;7.13;;;;;;;8.86;93.23;96076.03;5016726;28;20042;-78
2021/09/06 01:25:53;;;;;;;14.20;8.35;;;;;;;8.88;92.41;96084.44;5022110;28;20049;-78
2021/09/06 01:28:19;;;;;;;12.95;7.35;;;;;;;8.80;93.01;96078.59;5030443;28;20045;-78
2021/09/06 01:30:45;;;;;;;15.25;7.97;;;;;;;8.84;92.79;96074.44;5021378;28;20042;-78
2021/09/06 01:33:11;;;;;;;13.27;8.15;;;;;;;8.74;92.96;96079.56;5027453;28;20049;-78
2021/09/06 01:35:36;;;;;;;12.95;7.40;;;;;;;8.72;92.76;96076.41;5028315;28;20054;-78
2021/09/06 01:38:02;;;;;;;13.82;7.95;;;;;;;8.67;92.71;96078.94;5030452;28;20550;-78
2021/09/06 01:40:28;;;;;;;15.60;7.60;;;;;;;8.70;92.50;96083.72;5022696;28;20037;-79
2021/09/06 01:42:54;;;;;;;12.68;7.50;;;;;;;8.64;92.84;96074.19;5017956;28;20069;-78
2021/09/06 01:45:20;;;;;;;14.10;7.57;;;;;;;8.60;92.39;96067.84;5016604;28;20041;-78
2021/09/06 01:47:46;;;;;;;14.65;8.35;;;;;;;8.54;93.07;96080.09;5019367;28;20037;-78
2021/09/06 01:50:12;;;;;;;16.45;8.23;;;;;;;8.58;92.92;96080.41;5001487;28;20043;-78
2021/09/06 01:52:37;;;;;;;13.68;7.88;;;;;;;8.57;92.53;96081.44;5024176;28;20164;-78
2021/09/06 01:55:04;;;;;;;13.10;7.63;;;;;;;8.43;92.67;96084.41;5018871;28;20041;-78
2021/09/06 01:57:30;;;;;;;12.30;7.47;;;;;;;8.44;92.49;96079.94;5030095;28;20048;-78
2021/09/06 01:59:56;;;;;;;14.40;8.05;;;;;;;8.53;92.27;96073.25;5027880;28;20045;-78
2021/09/06 02:02:22;;;;;;;15.48;7.28;;;;;;;8.41;91.87;96081.19;5027834;28;20770;-78
2021/09/06 02:04:48;;;;;;;13.45;7.72;;;;;;;8.37;92.27;96084.56;5028415;28;20091;-79
2021/09/06 02:07:14;;;;;;;13.18;7.10;;;;;;;8.44;91.44;96086.00;5028845;28;20514;-78
2021/09/06 02:09:39;;;;;;;13.38;7.68;;;;;;;8.44;91.78;96083.38;5021645;28;20588;-78
2021/09/06 02:12:05;;;;;;;12.50;7.72;;;;;;;8.35;92.13;96082.16;5030011;28;20050;-78
2021/09/06 02:14:31;;;;;;;13.10;7.28;;;;;;;8.39;92.55;96083.28;5028673;28;20486;-78
2021/09/06 02:16:57;;;;;;;15.65;8.02;;;;;;;8.17;92.54;96085.81;5023855;28;20053;-78
2021/09/06 02:19:22;;;;;;;11.30;7.45;;;;;;;8.08;93.22;96088.06;4994998;28;20056;-80
2021/09/06 02:21:48;;;;;;;13.85;7.38;;;;;;;8.30;92.74;96089.94;5027896;28;20045;-78
2021/09/06 02:24:15;;;;;;;12.87;7.37;;;;;;;8.37;92.07;96085.34;4970249;28;1085771;-78
2021/09/06 02:26:41;;;;;;;13.65;7.47;;;;;;;8.31;92.04;96086.31;5028620;28;20317;-78
2021/09/06 02:29:06;;;;;;;11.68;6.97;;;;;;;8.13;92.63;96080.28;5029277;28;20069;-78
2021/09/06 02:31:32;;;;;;;15.93;8.43;;;;;;;7.98;93.30;96082.66;5028935;28;20115;-79
2021/09/06 02:33:58;;;;;;;14.27;7.93;;;;;;;8.08;92.73;96082.81;5024690;28;20048;-79
2021/09/06 02:36:23;;;;;;;16.42;7.72;;;;;;;8.11;92.87;96081.56;5029019;28;20049;-78
2021/09/06 02:38:49;;;;;;;18.77;8.48;;;;;;;8.02;93.12;96081.16;5029158;28;20161;-77
2021/09/06 02:41:14;;;;;;;12.65;7.63;;;;;;;8.00;93.05;96082.41;5009948;28;20053;-78
2021/09/06 02:43:40;;;;;;;15.18;7.15;;;;;;;8.01;93.34;96082.19;5029984;28;20041;-78
2021/09/06 02:46:06;;;;;;;16.10;8.30;;;;;;;7.98;92.61;96080.03;5028558;28;20041;-78
2021/09/06 02:48:32;;;;;;;13.52;7.68;;;;;;;7.93;93.08;96079.94;5028678;28;20419;-78
2021/09/06 02:50:57;;;;;;;14.00;7.75;;;;;;;7.90;92.41;96085.66;5017479;28;20051;-78
2021/09/06 02:53:23;;;;;;;12.02;7.20;;;;;;;7.90;92.89;96080.44;5015288;28;20045;-78
2021/09/06 02:55:48;;;;;;;13.38;7.72;;;;;;;7.86;91.96;96079.31;5019078;28;20042;-78
2021/09/06 02:58:14;;;;;;;12.40;7.47;;;;;;;7.79;92.04;96084.72;5029802;28;20052;-78
2021/09/06 03:00:40;;;;;;;16.83;7.40;;;;;;;7.84;92.32;96082.16;5017266;28;20046;-77
2021/09/06 03:03:05;;;;;;;13.98;7.22;;;;;;;7.89;91.44;96078.88;5010107;28;20046;-78
2021/09/06 03:05:31;;;;;;;15.45;7.18;;;;;;;7.86;91.94;96079.31;5001643;28;20100;-78
2021/09/06 03:08:00;;;;;;;13.68;7.75;;;;;;;7.80;92.60;96076.63;5028774;28;20499;-79
2021/09/06 03:10:26;;;;;;;12.57;7.25;;;;;;;7.71;92.49;96083.28;5008116;28;20037;-78
2021/09/06 03:12:51;;;;;;;19.90;7.75;;;;;;;7.63;93.45;96081.06;5028241;28;20116;-78
2021/09/06 03:15:17;;;;;;;13.77;7.30;;;;;;;7.64;92.92;96087.88;5012110;28;20060;-79
2021/09/06 03:17:42;;;;;;;12.73;7.18;;;;;;;7.68;93.21;96083.75;5026250;28;20136;-79
2021/09/06 03:20:08;;;;;;;16.98;7.53;;;;;;;7.59;93.92;96079.94;5023763;28;20037;-78
2021/09/06 03:22:34;;;;;;;16.73;7.45;;;;;;;7.65;93.36;96068.50;5022304;28;20046;-77
2021/09/06 03:24:59;;;;;;;12.88;6.80;;;;;;;7.72;92.58;96082.25;5009140;28;20046;-78
2021/09/06 03:27:25;;;;;;;14.93;6.97;;;;;;;7.41;93.82;96081.72;5017328;28;20120;-78
2021/09/06 03:29:50;;;;;;;13.50;7.22;;;;;;;7.59;92.91;96079.94;5017264;28;20110;-79
2021/09/06 03:32:16;;;;;;;11.65;7.45;;;;;;;7.60;93.27;96081.50;5021649;28;20048;-79
2021/09/06 03:34:41;;;;;;;13.55;7.00;;;;;;;7.50;93.04;96081.34;5010461;28;20048;-78
2021/09/06 03:37:07;;;;;;;11.93;7.28;;;;;;;7.68;92.99;96083.75;5026930;28;20041;-78
2021/09/06 03:39:33;;;;;;;11.65;6.57;;;;;;;7.66;92.23;96077.97;5019716;28;20046;-77
2021/09/06 03:41:59;;;;;;;10.80;6.70;;;;;;;7.71;92.34;96083.28;5019307;28;20041;-78
2021/09/06 03:44:24;;;;;;;12.88;6.97;;;;;;;7.51;92.91;96077.69;5008526;28;20065;-78
2021/09/06 03:46:54;;;;;;;12.38;7.70;;;;;;;7.55;92.77;96078.81;5011116;28;20442;-78
2021/09/06 03:49:20;;;;;;;11.32;6.90;;;;;;;7.62;92.63;96079.47;5023659;28;20065;-81
2021/09/06 03:51:45;;;;;;;12.68;7.47;;;;;;;7.63;92.85;96081.84;5028782;28;20048;-78
2021/09/06 03:54:11;;;;;;;13.45;7.50;;;;;;;7.62;92.87;96074.22;5021197;28;20075;-76
2021/09/06 03:56:36;;;;;;;15.65;7.70;;;;;;;7.59;92.41;96085.19;5031361;28;20076;-78
2021/09/06 03:59:02;;;;;;;13.98;7.80;;;;;;;7.46;93.03;96081.81;5031249;28;20045;-77
2021/09/06 04:01:27;;;;;;;13.45;7.47;;;;;;;7.22;92.84;96085.56;5025673;28;20054;-78
2021/09/06 04:03:53;;;;;;;14.55;7.50;;;;;;;7.19;93.43;96080.78;5034558;28;20057;-78
2021/09/06 04:06:18;;;;;;;14.32;7.07;;;;;;;7.40;93.64;96081.97;5028861;28;20050;-78
2021/09/06 04:08:44;;;;;;;14.95;7.50;;;;;;;7.39;93.06;96086.41;5028822;28;20750;-78
2021/09/06 04:11:09;;;;;;;12.75;7.32;;;;;;;7.38;92.39;96089.25;5008170;28;20049;-77
2021/09/06 04:13:35;;;;;;;13.88;6.88;;;;;;;7.23;92.95;96093.19;5029011;28;20048;-77
2021/09/06 04:16:01;;;;;;;14.55;7.28;;;;;;;7.10;93.28;96094.25;5028225;28;20072;-78
2021/09/06 04:18:27;;;;;;;11.73;7.32;;;;;;;7.32;93.86;96101.44;5030424;28;20049;-77
2021/09/06 04:20:55;;;;;;;13.10;7.55;;;;;;;7.33;92.99;96091.78;5012624;28;20053;-78
2021/09/06 04:23:20;;;;;;;14.63;7.47;;;;;;;7.34;92.92;96099.41;5029554;28;20510;-78
2021/09/06 04:25:45;;;;;;;13.23;7.85;;;;;;;7.20;93.20;96092.88;5030295;28;20045;-78
2021/09/06 04:28:11;;;;;;;13.85;7.47;;;;;;;7.16;93.37;96091.72;5031419;28;20548;-78
2021/09/06 04:30:37;;;;;;;11.93;6.78;;;;;;;7.28;93.11;96100.31;5006390;28;20050;-79
2021/09/06 04:33:02;;;;;;;12.27;7.43;;;;;;;7.40;92.81;96098.47;5030484;28;20064;-78
2021/09/06 04:35:28;;;;;;;15.40;6.82;;;;;;;7.30;93.07;96093.06;5029834;28;20044;-77
2021/09/06 04:37:53;;;;;;;14.85;7.63;;;;;;;7.32;93.60;96093.59;5012534;28;20049;-78
2021/09/06 04:40:19;;;;;;;15.52;7.63;;;;;;;7.04;93.36;96100.41;5025723;28;20136;-78
2021/09/06 04:42:45;;;;;;;14.27;7.18;;;;;;;6.87;93.83;96099.53;5030552;28;20041;-78
2021/09/06 04:45:10;;;;;;;12.05;7.60;;;;;;;7.12;94.13;96101.84;5029256;28;20045;-77
2021/09/06 04:47:36;;;;;;;16.85;7.65;;;;;;;7.18;94.53;96105.38;5030901;28;20056;-78
2021/09/06 04:50:01;;;;;;;14.65;8.73;;;;;;;7.25;94.29;96106.03;5009756;28;20152;-77
2021/09/06 04:52:27;;;;;;;13.48;7.78;;;;;;;7.19;93.71;96101.72;5025014;28;20042;-78
2021/09/06 04:54:52;;;;;;;14.55;7.43;;;;;;;7.11;94.53;96106.31;5018449;28;20041;-77
2021/09/06 04:57:18;;;;;;;14.73;7.75;;;;;;;7.11;93.95;96110.72;5029124;28;20041;-79
2021/09/06 04:59:43;;;;;;;15.60;8.02;;;;;;;7.13;93.58;96113.16;5020352;28;20064;-78
2021/09/06 05:02:09;;;;;;;12.52;7.68;;;;;;;7.16;94.55;96123.16;5027089;28;20105;-77
2021/09/06 05:04:36;;;;;;;15.80;7.95;;;;;;;6.99;95.76;96118.63;5026704;28;20048;-78
2021/09/06 05:07:01;;;;;;;14.20;7.43;;;;;;;7.10;93.97;96125.66;5030045;28;20037;-78
2021/09/06 05:09:26;;;;;;;16.08;7.25;;;;;;;7.38;93.78;96129.31;5009422;28;20827;-78
2021/09/06 05:11:52;;;;;;;16.38;7.43;;;;;;;7.26;93.32;96124.13;5010825;28;20454;-78
2021/09/06 05:14:18;;;;;;;14.70;7.45;;;;;;;7.16;94.81;96133.63;5030307;28;20577;-78
2021/09/06 05:16:43;;;;;;;15.70;7.97;;;;;;;7.19;95.01;96131.31;5011276;28;20811;-78
2021/09/06 05:19:09;;;;;;;15.80;8.10;;;;;;;7.17;96.00;96129.94;5021875;28;20041;-82
2021/09/06 05:21:34;;;;;;;15.10;8.10;;;;;;;7.34;95.28;96136.06;5022390;28;20045;-78
2021/09/06 05:24:02;;;;;;;13.63;8.40;;;;;;;7.39;95.74;96141.38;5025715;28;20042;-79
2021/09/06 05:26:28;;;;;;;15.23;7.97;;;;;;;7.33;95.17;96129.22;5029015;28;20033;-78
2021/09/06 05:28:54;;;;;;;19.80;8.13;;;;;;;7.39;95.29;96138.75;5028709;28;20515;-78
2021/09/06 05:31:19;;;;;;;15.10;8.02;;;;;;;7.46;95.45;96144.66;5016745;28;20415;-78
2021/09/06 05:33:45;;;;;;;14.10;7.85;;;;;;;7.57;95.49;96137.00;5028773;28;20041;-78
2021/09/06 05:36:15;;;;;;;16.10;8.27;;;;;;;7.70;94.96;96136.72;5029030;28;20045;-78
2021/09/06 05:38:41;;;;;;;16.42;8.40;;;;;;;7.88;95.01;96133.09;5023671;28;20061;-78
2021/09/06 05:41:06;;;;;;;15.20;8.27;;;;;;;7.91;94.89;96134.44;5019724;28;20046;-78
2021/09/06 05:43:33;;;;;;;14.02;8.07;;;;;;;7.96;95.25;96137.16;5012943;28;20052;-77
2021/09/06 05:45:58;;;;;;;14.23;8.07;;;;;;;8.14;94.82;96144.00;5027303;28;20112;-78
2021/09/06 05:48:24;;;;;;;18.48;8.68;;;;;;;8.27;94.41;96142.88;5022538;28;20408;-78
2021/09/06 05:50:49;;;;;;;17.77;8.80;;;;;;;8.34;94.32;96143.50;5009243;28;20049;-83
2021/09/06 05:53:15;;;;;;;16.98;8.20;;;;;;;8.42;94.22;96140.50;4997292;28;20120;-78
2021/09/06 05:55:42;;;;;;;13.57;7.70;;;;;;;8.47;94.30;96153.69;5025594;28;20042;-75
2021/09/06 05:58:08;;;;;;;16.08;8.07;;;;;;;8.45;94.95;96158.41;5021742;28;20046;-75
2021/09/06 06:00:34;;;;;;;14.68;7.72;;;;;;;8.44;95.42;96156.81;5017475;28;20620;-75
2021/09/06 06:03:00;;;;;;;12.63;7.78;;;;;;;8.45;95.60;96158.41;5025094;28;20068;-74
2021/09/06 06:05:25;;;;;;;18.02;7.85;;;;;;;8.48;95.81;96162.38;5027790;28;20041;-74
2021/09/06 06:07:51;;;;;;;18.55;9.13;;;;;;;8.48;97.12;96165.78;5010041;28;20045;-74
2021/09/06 06:10:17;;;;;;;16.48;8.70;;;;;;;8.60;98.26;96162.28;5025445;28;20060;-73
2021/09/06 06:12:42;;;;;;;16.27;8.80;;;;;;;8.73;97.76;96159.31;5009892;28;20045;-74
2021/09/06 06:15:08;;;;;;;14.57;8.80;;;;;;;8.84;98.56;96162.91;5027395;28;20044;-72
2021/09/06 06:17:34;;;;;;;15.98;9.27;;;;;;;8.90;97.61;96161.13;5026665;28;20049;-71
2021/09/06 06:19:59;;;;;;;16.73;9.40;;;;;;;8.97;98.35;96167.00;5023438;28;20045;-73
2021/09/06 06:22:25;;;;;;;16.45;9.45;;;;;;;9.24;98.09;96172.34;5022660;28;20085;-72
2021/09/06 06:24:50;;;;;;;18.42;9.43;;;;;;;9.27;98.65;96165.81;5026616;28;20045;-72
2021/09/06 06:27:16;;;;;;;21.38;9.52;;;;;;;9.28;98.92;96167.38;5028286;28;20037;-73
2021/09/06 06:29:41;;;;;;;20.15;8.30;;;;;;;9.31;98.17;96177.38;5024714;28;20048;-74
2021/09/06 06:32:07;;;;;;;13.43;8.00;;;;;;;9.34;98.04;96171.69;5010195;28;20054;-72
2021/09/06 06:34:32;;;;;;;19.48;9.50;;;;;;;9.39;98.29;96174.34;5026486;28;20549;-73
2021/09/06 06:36:58;;;;;;;17.73;10.07;;;;;;;9.48;99.52;96172.88;5025933;28;20044;-73
2021/09/06 06:39:24;;;;;;;17.83;9.60;;;;;;;9.74;100.00;96175.78;5007818;28;20091;-72
2021/09/06 06:41:50;;;;;;;18.73;10.73;;;;;;;10.15;100.00;96181.44;5023765;28;20052;-73
2021/09/06 06:44:16;;;;;;;17.50;10.40;;;;;;;10.56;100.00;96176.53;5026759;28;20045;-75
2021/09/06 06:46:42;;;;;;;17.88;10.20;;;;;;;11.06;99.01;96174.47;5025587;28;20059;-75
2021/09/06 06:49:07;;;;;;;16.00;10.25;;;;;;;11.33;98.48;96168.25;5017333;28;20419;-75
2021/09/06 06:51:34;;;;;;;15.02;9.48;;;;;;;11.67;96.72;96178.41;5024466;28;20037;-75
2021/09/06 06:54:00;;;;;;;14.32;8.82;;;;;;;11.89;95.25;96174.75;4999507;28;20050;-74
2021/09/06 06:56:25;;;;;;;16.33;8.88;;;;;;;11.86;94.37;96175.28;5026534;28;20045;-75
2021/09/06 06:58:51;;;;;;;16.35;8.10;;;;;;;11.70;94.99;96179.72;5025007;28;20048;-76
2021/09/06 07:01:17;;;;;;;18.58;9.07;;;;;;;11.56;95.24;96177.56;5008277;28;20092;-75
2021/09/06 07:03:42;;;;;;;17.23;9.20;;;;;;;11.49;95.91;96181.50;5025891;28;20095;-75
2021/09/06 07:06:08;;;;;;;15.35;9.10;;;;;;;11.63;97.02;96181.81;5024597;28;20411;-78
2021/09/06 07:08:33;;;;;;;25.13;10.88;;;;;;;11.73;95.34;96181.84;5020818;28;20121;-74
2021/09/06 07:10:59;;;;;;;21.30;10.75;;;;;;;11.93;94.76;96189.81;5017956;28;20502;-73
2021/09/06 07:13:24;;;;;;;20.52;9.75;;;;;;;11.88;94.64;96184.53;5025504;28;20029;-73
2021/09/06 07:15:50;;;;;;;19.55;10.52;;;;;;;11.99;95.42;96184.56;5027013;28;20116;-73
2021/09/06 07:18:16;;;;;;;22.50;11.27;;;;;;;12.03;96.25;96185.63;5023750;28;20038;-74
2021/09/06 07:20:41;;;;;;;19.67;11.25;;;;;;;12.15;94.75;96186.16;5019712;28;20506;-73
2021/09/06 07:23:07;;;;;;;20.00;11.45;;;;;;;12.39;93.97;96193.59;5026630;28;20136;-74
2021/09/06 07:25:32;;;;;;;22.35;11.75;;;;;;;12.30;94.16;96190.69;5030096;28;20048;-74
2021/09/06 07:27:58;;;;;;;20.77;11.88;;;;;;;12.33;93.20;96194.66;5028345;28;20777;-74
2021/09/06 07:30:23;;;;;;;22.60;12.23;;;;;;;12.43;92.98;96189.38;5026029;28;20111;-74
2021/09/06 07:32:51;;;;;;;24.02;11.57;;;;;;;12.64;92.02;96200.69;5025869;28;20049;-74
2021/09/06 07:35:16;;;;;;;21.65;11.85;;;;;;;12.76;91.52;96203.06;5019224;28;20042;-73
2021/09/06 07:37:42;;;;;;;24.75;12.02;;;;;;;12.83;90.76;96203.59;5021311;28;20403;-73
2021/09/06 07:40:11;;;;;;;23.55;12.32;;;;;;;12.83;90.87;96203.59;5031828;28;20443;-73
2021/09/06 07:42:38;;;;;;;22.88;12.25;;;;;;;13.14;89.51;96195.59;5023227;28;20049;-74
2021/09/06 07:45:05;;;;;;;23.13;12.27;;;;;;;13.61;87.75;96212.91;5027710;28;20038;-73
2021/09/06 07:47:31;;;;;;;26.02;12.77;;;;;;;13.40;89.24;96216.69;5029547;28;20041;-75
2021/09/06 07:49:57;;;;;;;25.00;13.20;;;;;;;13.46;88.79;96210.31;5026593;28;20056;-74
2021/09/06 07:52:24;;;;;;;28.50;12.77;;;;;;;13.46;89.89;96215.63;5021010;28;20049;-74
2021/09/06 07:54:50;;;;;;;22.20;12.75;;;;;;;13.49;89.40;96215.88;5022814;28;20040;-73
2021/09/06 07:57:15;;;;;;;23.95;11.88;;;;;;;13.53;89.91;96216.13;5027201;28;20041;-72
2021/09/06 07:59:41;;;;;;;23.90;13.15;;;;;;;13.48;89.83;96221.44;5023493;28;20038;-74
2021/09/06 08:02:06;;;;;;;26.50;13.63;;;;;;;13.61;88.85;96223.50;5024062;28;20041;-71
2021/09/06 08:04:32;;;;;;;26.27;13.98;;;;;;;13.73;88.13;96230.31;5029257;28;20513;-73
2021/09/06 08:06:58;;;;;;;30.55;13.63;;;;;;;14.24;85.13;96224.75;5025801;28;20052;-73
2021/09/06 08:09:23;;;;;;;22.08;12.90;;;;;;;14.12;86.50;96234.88;5024839;28;20041;-74
2021/09/06 08:11:50;;;;;;;24.92;13.57;;;;;;;14.27;85.32;96229.50;5026426;28;20049;-74
2021/09/06 08:14:17;;;;;;;22.83;13.07;;;;;;;14.26;85.76;96222.63;5026613;28;20399;-73
2021/09/06 08:16:43;;;;;;;30.27;13.77;;;;;;;14.16;86.17;96225.34;5032656;28;20516;-74
2021/09/06 08:19:08;;;;;;;31.17;14.18;;;;;;;14.45;84.91;96229.91;5027587;28;20037;-75
2021/09/06 08:21:34;;;;;;;27.20;12.50;;;;;;;14.53;85.31;96227.47;5011695;28;20449;-76
2021/09/06 08:24:00;;;;;;;25.98;14.05;;;;;;;14.48;84.60;96230.16;5023871;28;20057;-74
2021/09/06 08:26:26;;;;;;;27.67;14.43;;;;;;;14.42;85.56;96235.75;5027008;28;20038;-75
2021/09/06 08:28:52;;;;;;;25.20;14.43;;;;;;;14.51;85.95;96229.59;5024968;28;20084;-75
2021/09/06 08:31:18;;;;;;;24.65;13.32;;;;;;;14.48;86.58;96235.47;5025016;28;20037;-76
2021/09/06 08:33:44;;;;;;;23.83;13.35;;;;;;;14.77;86.92;96231.28;5030538;28;20048;-76
2021/09/06 08:36:11;;;;;;;30.05;15.10;;;;;;;15.03;84.92;96229.97;5030457;28;20042;-75
2021/09/06 08:38:38;;;;;;;23.00;12.80;;;;;;;14.96;85.46;96229.53;5019973;28;20045;-77
2021/09/06 08:41:04;;;;;;;20.83;12.25;;;;;;;15.12;85.00;96232.03;5021765;28;20108;-75
2021/09/06 08:43:32;;;;;;;21.90;12.55;;;;;;;14.98;84.97;96237.97;5029500;28;20056;-74
2021/09/06 08:45:59;;;;;;;24.17;13.25;;;;;;;14.94;85.47;96231.69;5029024;28;20045;-75
2021/09/06 08:48:25;;;;;;;23.25;12.52;;;;;;;14.99;84.88;96234.25;5004388;28;20042;-75
2021/09/06 08:50:51;;;;;;;24.35;12.30;;;;;;;14.96;84.90;96234.81;5024848;28;20050;-76
2021/09/06 08:53:16;;;;;;;22.85;12.35;;;;;;;14.99;86.38;96233.47;5024838;28;20095;-75
2021/09/06 08:55:42;;;;;;;24.15;12.13;;;;;;;15.06;84.23;96229.41;5029766;28;20099;-75
2021/09/06 08:58:08;;;;;;;24.05;13.20;;;;;;;15.62;82.67;96239.72;5027049;28;20646;-74
2021/09/06 09:00:34;;;;;;;23.60;12.82;;;;;;;15.48;82.95;96234.31;5026372;28;20465;-75
2021/09/06 09:03:00;;;;;;;20.88;11.85;;;;;;;15.61;81.85;96236.25;5026133;28;20702;-79
2021/09/06 09:05:27;;;;;;;21.27;12.10;;;;;;;15.64;83.02;96232.25;5023333;28;20111;-77
2021/09/06 09:08:00;;;;;;;18.88;11.30;;;;;;;15.82;81.15;96230.75;5010633;28;20793;-75
2021/09/06 09:10:31;;;;;;;21.42;11.45;;;;;;;16.00;79.29;96229.97;5006028;28;20527;-75
2021/09/06 09:13:06;;;;;;;27.90;10.90;;;;;;;16.26;78.35;96235.72;5023410;28;20049;-73
2021/09/06 09:15:32;;;;;;;26.85;11.30;;;;;;;16.38;77.42;96235.28;5021640;28;20120;-73
2021/09/06 09:17:58;;;;;;;22.88;12.35;;;;;;;16.44;77.60;96239.44;5020059;28;20092;-75
2021/09/06 09:20:42;;;;;;;23.45;11.75;;;;;;;16.59;76.73;96234.97;5004145;28;20426;-74
2021/09/06 09:23:09;;;;;;;20.67;10.87;;;;;;;16.67;77.84;96242.28;5021371;28;20703;-77
2021/09/06 09:25:35;;;;;;;18.05;10.85;;;;;;;16.71;77.23;96237.97;5006447;28;20045;-81
2021/09/06 09:28:02;;;;;;;21.00;10.43;;;;;;;16.87;76.06;96237.72;5026387;28;20450;-76
2021/09/06 09:30:30;;;;;;;20.15;11.25;;;;;;;17.03;74.15;96238.28;5028661;28;20046;-75
2021/09/06 09:33:13;;;;;;;17.83;10.95;;;;;;;17.03;74.94;96230.31;5025321;28;20124;-76
2021/09/06 09:35:40;;;;;;;19.17;11.20;;;;;;;17.14;75.63;96229.81;5028635;28;20042;-74
2021/09/06 09:38:08;;;;;;;22.50;10.98;;;;;;;17.13;75.26;96238.88;5026026;28;20140;-76
2021/09/06 09:40:39;;;;;;;17.90;10.68;;;;;;;17.39;74.95;96230.44;5018459;28;20052;-76
2021/09/06 09:43:06;;;;;;;17.65;10.18;;;;;;;17.45;75.13;96234.56;5024597;28;20045;-76
2021/09/06 09:45:33;;;;;;;21.60;11.20;;;;;;;17.50;74.95;96233.69;5024138;28;20045;-73
2021/09/06 09:48:00;;;;;;;17.10;10.73;;;;;;;17.64;73.28;96225.69;5005396;28;20103;-74
2021/09/06 09:50:28;;;;;;;17.73;10.57;;;;;;;17.68;73.95;96232.00;5025327;28;20388;-75
2021/09/06 09:52:58;;;;;;;18.63;11.20;;;;;;;17.81;72.78;96231.22;5020037;28;20045;-74
2021/09/06 09:55:25;;;;;;;17.95;11.00;;;;;;;18.10;71.99;96226.66;5025038;28;20580;-76
2021/09/06 09:57:52;;;;;;;18.67;11.20;;;;;;;18.21;70.72;96227.22;5028010;28;20510;-76
2021/09/06 10:00:18;;;;;;;18.20;11.50;;;;;;;18.51;69.55;96226.50;5026031;28;20056;-74
2021/09/06 10:02:55;;;;;;;20.90;11.68;;;;;;;18.60;68.84;96229.22;5019280;28;20142;-76
2021/09/06 10:05:32;;;;;;;20.65;11.75;;;;;;;18.85;68.45;96227.06;5027290;28;20037;-76
2021/09/06 10:08:00;;;;;;;22.80;11.30;;;;;;;19.07;68.34;96225.47;5027907;28;20048;-76
2021/09/06 10:10:27;;;;;;;19.98;11.20;;;;;;;19.41;67.04;96230.19;5023462;28;20041;-77
2021/09/06 10:13:05;;;;;;;21.98;12.05;;;;;;;19.79;66.95;96219.00;5009713;28;20851;-76
2021/09/06 10:15:32;;;;;;;18.30;10.95;;;;;;;19.89;64.31;96223.28;5024075;28;20045;-78
2021/09/06 10:18:01;;;;;;;17.30;10.68;;;;;;;20.20;64.37;96219.69;5018830;28;20045;-75
2021/09/06 10:20:27;;;;;;;18.13;11.45;;;;;;;20.36;63.48;96217.34;5022785;28;20048;-74
2021/09/06 10:23:01;;;;;;;22.80;11.68;;;;;;;20.54;62.87;96215.44;5021572;28;20049;-75
2021/09/06 10:25:30;;;;;;;18.40;10.27;;;;;;;21.13;59.95;96220.22;5008495;28;20150;-74
2021/09/06 10:28:02;;;;;;;16.58;9.75;;;;;;;21.46;59.54;96211.59;5016812;28;20451;-75
2021/09/06 10:30:37;;;;;;;18.85;10.98;;;;;;;21.50;60.13;96223.22;5023546;28;20733;-76
2021/09/06 10:33:04;;;;;;;16.65;9.80;;;;;;;22.03;58.05;96212.25;5021205;28;20407;-75
2021/09/06 10:35:29;;;;;;;15.05;9.52;;;;;;;21.50;57.99;96217.88;5028380;28;20042;-74
2021/09/06 10:38:13;;;;;;;17.23;10.15;;;;;;;22.10;57.63;96212.50;5025777;28;20050;-75
2021/09/06 10:40:42;;;;;;;15.40;9.45;;;;;;;22.33;56.49;96214.91;5008455;28;20057;-74
2021/09/06 10:43:20;;;;;;;14.23;9.73;;;;;;;22.51;55.56;96213.63;5027392;28;20582;-76
2021/09/06 10:45:50;;;;;;;14.23;9.40;;;;;;;22.54;55.99;96210.31;5026996;28;20080;-76
2021/09/06 10:48:19;;;;;;;16.50;9.38;;;;;;;22.74;55.31;96208.69;5023273;28;20041;-76
2021/09/06 10:50:45;;;;;;;17.67;9.48;;;;;;;23.39;53.05;96210.03;5020943;28;20041;-75
2021/09/06 10:53:21;;;;;;;15.57;9.38;;;;;;;23.37;53.73;96212.28;5019332;28;20418;-75
2021/09/06 10:55:48;;;;;;;13.65;8.40;;;;;;;25.03;49.52;96205.16;5025531;28;20041;-76
2021/09/06 10:58:14;;;;;;;10.48;7.53;;;;;;;25.42;47.86;96202.69;5031570;28;20446;-75
2021/09/06 11:00:40;;;;;;;13.70;8.80;;;;;;;24.76;49.17;96209.47;5029692;28;20046;-74
2021/09/06 11:03:06;;;;;;;20.30;8.93;;;;;;;23.59;50.08;96198.41;5031296;28;20049;-75
2021/09/06 11:05:32;;;;;;;13.25;7.63;;;;;;;24.04;51.07;96218.22;5031263;28;20045;-75
2021/09/06 11:08:07;;;;;;;18.27;8.68;;;;;;;25.32;49.06;96197.81;5029513;28;20107;-73
2021/09/06 11:10:33;;;;;;;12.77;8.70;;;;;;;25.22;46.96;96198.31;5029106;28;20049;-75
2021/09/06 11:13:01;;;;;;;11.95;7.65;;;;;;;24.49;47.19;96198.34;5031004;28;20410;-75
2021/09/06 11:15:30;;;;;;;11.50;8.13;;;;;;;24.01;49.44;96200.84;5028328;28;20046;-74
2021/09/06 11:18:01;;;;;;;12.50;7.85;;;;;;;24.94;48.05;96199.19;5026603;28;20053;-74
2021/09/06 11:20:29;;;;;;;11.25;7.57;;;;;;;23.97;48.20;96201.88;5025990;28;20060;-75
2021/09/06 11:23:01;;;;;;;10.55;7.65;;;;;;;24.31;47.74;96195.16;5021009;28;20053;-76